logo
Search for airport 
image banner adimage banner adimage banner ad
image banner ad

ZJYX - Sansha Yongxing

Located in Yongxing/Woody Island, China

ICAO - ZJYX, IATA - XYI

Data provided by Airmate  

General information

Coordinates: N16°49'58" E112°20'38"
Elevation is 39 feet MSL.
Magnetic variation is -2° East
View others Airports in Hainan Province

Operational data

Special qualification required
Current time UTC:
Current local time:
Weather at : - ( 0 km )
METAR: KSUA 251647Z 12010G17KT 7SM SCT018 BKN025 32/26 A3015
View NOTAMs / SUP AIP / TFR affecting this airport [VIEW]
Communications frequencies: [VIEW]

Runways:

RWY identifierQFULength (ft)Width (ft)SurfaceLDA (ft)
0545°8864163CONC
23225°8864163CONC

Airport contact information

Address: Yongxing/Woody Island China

Satellite view of ZJYX